sensor_id;sensor_type;location;lat;lon;timestamp;pressure;altitude;pressure_sealevel;temperature;humidity
77303;BME280;66363;49.828;7.856;2023-04-24T00:00:25;98951.53;;;11.29;74.60
77303;BME280;66363;49.828;7.856;2023-04-24T00:02:51;98951.25;;;11.22;75.08
77303;BME280;66363;49.828;7.856;2023-04-24T00:05:17;98959.78;;;11.26;74.74
77303;BME280;66363;49.828;7.856;2023-04-24T00:07:45;98951.00;;;11.15;75.08
77303;BME280;66363;49.828;7.856;2023-04-24T00:10:11;98940.94;;;11.09;76.25
77303;BME280;66363;49.828;7.856;2023-04-24T00:12:37;98934.34;;;11.04;75.35
77303;BME280;66363;49.828;7.856;2023-04-24T00:15:03;98931.97;;;11.01;76.78
77303;BME280;66363;49.828;7.856;2023-04-24T00:17:29;98933.25;;;11.06;75.70
77303;BME280;66363;49.828;7.856;2023-04-24T00:19:54;98926.53;;;11.02;76.24
77303;BME280;66363;49.828;7.856;2023-04-24T00:22:20;98914.66;;;11.06;76.62
77303;BME280;66363;49.828;7.856;2023-04-24T00:24:47;98919.97;;;11.06;76.33
77303;BME280;66363;49.828;7.856;2023-04-24T00:27:13;98916.75;;;11.03;76.24
77303;BME280;66363;49.828;7.856;2023-04-24T00:29:38;98912.84;;;11.07;76.99
77303;BME280;66363;49.828;7.856;2023-04-24T00:32:04;98915.31;;;11.18;75.91
77303;BME280;66363;49.828;7.856;2023-04-24T00:34:30;98904.56;;;11.29;75.20
77303;BME280;66363;49.828;7.856;2023-04-24T00:36:56;98904.13;;;11.34;75.06
77303;BME280;66363;49.828;7.856;2023-04-24T00:39:21;98895.19;;;11.25;75.46
77303;BME280;66363;49.828;7.856;2023-04-24T00:41:49;98899.66;;;11.25;75.85
77303;BME280;66363;49.828;7.856;2023-04-24T00:44:15;98895.91;;;11.27;74.65
77303;BME280;66363;49.828;7.856;2023-04-24T00:46:41;98893.94;;;11.19;75.83
77303;BME280;66363;49.828;7.856;2023-04-24T00:49:07;98897.19;;;11.13;75.63
77303;BME280;66363;49.828;7.856;2023-04-24T00:51:33;98909.88;;;11.19;75.23
77303;BME280;66363;49.828;7.856;2023-04-24T00:53:59;98900.22;;;11.28;74.47
77303;BME280;66363;49.828;7.856;2023-04-24T00:56:25;98902.88;;;11.28;75.00
77303;BME280;66363;49.828;7.856;2023-04-24T00:58:52;98899.94;;;11.31;74.44
77303;BME280;66363;49.828;7.856;2023-04-24T01:01:19;98896.16;;;11.34;74.81
77303;BME280;66363;49.828;7.856;2023-04-24T01:03:46;98905.97;;;11.33;74.76
77303;BME280;66363;49.828;7.856;2023-04-24T01:06:12;98903.84;;;11.37;75.31
77303;BME280;66363;49.828;7.856;2023-04-24T01:08:39;98908.88;;;11.40;74.39
77303;BME280;66363;49.828;7.856;2023-04-24T01:11:07;98929.44;;;11.38;74.48
77303;BME280;66363;49.828;7.856;2023-04-24T01:13:33;98916.72;;;11.41;74.17
77303;BME280;66363;49.828;7.856;2023-04-24T01:16:00;98923.84;;;11.41;73.71
77303;BME280;66363;49.828;7.856;2023-04-24T01:18:27;98931.50;;;11.44;73.83
77303;BME280;66363;49.828;7.856;2023-04-24T01:20:53;98929.84;;;11.43;73.07
77303;BME280;66363;49.828;7.856;2023-04-24T01:23:22;98928.00;;;11.43;73.66
77303;BME280;66363;49.828;7.856;2023-04-24T01:25:48;98935.84;;;11.45;72.99
77303;BME280;66363;49.828;7.856;2023-04-24T01:28:14;98925.22;;;11.45;74.00
77303;BME280;66363;49.828;7.856;2023-04-24T01:30:41;98937.97;;;11.41;73.96
77303;BME280;66363;49.828;7.856;2023-04-24T01:33:06;98939.91;;;11.39;73.70
77303;BME280;66363;49.828;7.856;2023-04-24T01:35:32;98943.28;;;11.41;74.16
77303;BME280;66363;49.828;7.856;2023-04-24T01:37:58;98947.75;;;11.41;74.67
77303;BME280;66363;49.828;7.856;2023-04-24T01:40:25;98957.13;;;11.35;74.34
77303;BME280;66363;49.828;7.856;2023-04-24T01:42:51;98946.78;;;11.32;74.80
77303;BME280;66363;49.828;7.856;2023-04-24T01:45:17;98948.59;;;11.32;74.84
77303;BME280;66363;49.828;7.856;2023-04-24T01:47:44;98952.78;;;11.25;75.72
77303;BME280;66363;49.828;7.856;2023-04-24T01:50:11;98947.06;;;11.19;76.07
77303;BME280;66363;49.828;7.856;2023-04-24T01:52:36;98952.09;;;11.13;76.27
77303;BME280;66363;49.828;7.856;2023-04-24T01:55:02;98952.53;;;11.08;76.52
77303;BME280;66363;49.828;7.856;2023-04-24T01:57:30;98946.22;;;11.09;76.34
77303;BME280;66363;49.828;7.856;2023-04-24T01:59:56;98944.41;;;11.00;77.57
77303;BME280;66363;49.828;7.856;2023-04-24T02:02:21;98944.28;;;11.02;77.17
77303;BME280;66363;49.828;7.856;2023-04-24T02:04:47;98946.22;;;11.00;76.71
77303;BME280;66363;49.828;7.856;2023-04-24T02:07:12;98944.69;;;10.97;76.86
77303;BME280;66363;49.828;7.856;2023-04-24T02:09:38;98961.31;;;10.99;77.77
77303;BME280;66363;49.828;7.856;2023-04-24T02:12:04;98958.66;;;10.99;76.83
77303;BME280;66363;49.828;7.856;2023-04-24T02:14:31;98953.50;;;10.98;73.09
77303;BME280;66363;49.828;7.856;2023-04-24T02:16:57;98950.00;;;10.97;74.15
77303;BME280;66363;49.828;7.856;2023-04-24T02:19:22;98960.47;;;10.99;72.29
77303;BME280;66363;49.828;7.856;2023-04-24T02:21:48;98947.91;;;11.01;70.64
77303;BME280;66363;49.828;7.856;2023-04-24T02:24:14;98951.13;;;11.04;70.92
77303;BME280;66363;49.828;7.856;2023-04-24T02:26:39;98944.97;;;11.04;73.06
77303;BME280;66363;49.828;7.856;2023-04-24T02:29:05;98956.84;;;11.00;73.73
77303;BME280;66363;49.828;7.856;2023-04-24T02:31:32;98955.31;;;10.97;74.02
77303;BME280;66363;49.828;7.856;2023-04-24T02:33:58;98959.66;;;10.88;73.94
77303;BME280;66363;49.828;7.856;2023-04-24T02:36:23;98959.34;;;10.82;73.51
77303;BME280;66363;49.828;7.856;2023-04-24T02:38:49;98961.56;;;10.77;73.75
77303;BME280;66363;49.828;7.856;2023-04-24T02:41:15;98966.47;;;10.81;72.59
77303;BME280;66363;49.828;7.856;2023-04-24T02:43:41;98974.84;;;10.77;72.32
77303;BME280;66363;49.828;7.856;2023-04-24T02:46:06;98971.75;;;10.72;72.36
77303;BME280;66363;49.828;7.856;2023-04-24T02:48:33;98973.44;;;10.73;72.43
77303;BME280;66363;49.828;7.856;2023-04-24T02:50:59;98983.47;;;10.69;71.46
77303;BME280;66363;49.828;7.856;2023-04-24T02:53:25;98997.03;;;10.66;71.11
77303;BME280;66363;49.828;7.856;2023-04-24T02:55:50;98988.66;;;10.61;71.11
77303;BME280;66363;49.828;7.856;2023-04-24T02:58:16;98990.34;;;10.62;69.63
77303;BME280;66363;49.828;7.856;2023-04-24T03:00:42;98995.50;;;10.64;69.37
77303;BME280;66363;49.828;7.856;2023-04-24T03:03:08;98992.84;;;10.64;69.70
77303;BME280;66363;49.828;7.856;2023-04-24T03:05:35;98998.28;;;10.62;69.99
77303;BME280;66363;49.828;7.856;2023-04-24T03:08:01;98998.97;;;10.54;70.65
77303;BME280;66363;49.828;7.856;2023-04-24T03:10:26;99002.41;;;10.45;71.12
77303;BME280;66363;49.828;7.856;2023-04-24T03:12:52;99013.41;;;10.41;70.26
77303;BME280;66363;49.828;7.856;2023-04-24T03:15:18;99007.97;;;10.42;70.55
77303;BME280;66363;49.828;7.856;2023-04-24T03:17:43;99021.81;;;10.36;69.77
77303;BME280;66363;49.828;7.856;2023-04-24T03:20:09;99024.97;;;10.30;69.84
77303;BME280;66363;49.828;7.856;2023-04-24T03:22:36;99040.06;;;10.30;69.27
77303;BME280;66363;49.828;7.856;2023-04-24T03:25:02;99047.47;;;10.15;69.10
77303;BME280;66363;49.828;7.856;2023-04-24T03:27:28;99056.56;;;10.12;68.33
77303;BME280;66363;49.828;7.856;2023-04-24T03:29:54;99044.47;;;9.99;67.61
77303;BME280;66363;49.828;7.856;2023-04-24T03:32:19;99048.84;;;9.88;66.80
77303;BME280;66363;49.828;7.856;2023-04-24T03:34:45;99043.38;;;9.80;67.94
77303;BME280;66363;49.828;7.856;2023-04-24T03:37:11;99042.09;;;9.75;66.75
77303;BME280;66363;49.828;7.856;2023-04-24T03:39:38;99040.06;;;9.67;65.85
77303;BME280;66363;49.828;7.856;2023-04-24T03:42:04;99048.09;;;9.56;67.39
77303;BME280;66363;49.828;7.856;2023-04-24T03:44:29;99039.56;;;9.52;67.16
77303;BME280;66363;49.828;7.856;2023-04-24T03:46:55;99044.28;;;9.49;66.75
77303;BME280;66363;49.828;7.856;2023-04-24T03:49:21;99038.66;;;9.42;66.54
77303;BME280;66363;49.828;7.856;2023-04-24T03:51:46;99037.50;;;9.35;67.66
77303;BME280;66363;49.828;7.856;2023-04-24T03:54:12;99053.28;;;9.26;66.84
77303;BME280;66363;49.828;7.856;2023-04-24T03:56:39;99041.28;;;9.22;66.52
77303;BME280;66363;49.828;7.856;2023-04-24T03:59:05;99050.88;;;9.23;66.91
77303;BME280;66363;49.828;7.856;2023-04-24T04:01:30;99051.63;;;9.13;67.08
77303;BME280;66363;49.828;7.856;2023-04-24T04:03:56;99046.09;;;9.16;66.98
77303;BME280;66363;49.828;7.856;2023-04-24T04:06:22;99044.63;;;9.24;66.86
77303;BME280;66363;49.828;7.856;2023-04-24T04:08:47;99040.53;;;9.31;67.16
77303;BME280;66363;49.828;7.856;2023-04-24T04:11:13;99046.97;;;9.38;67.32
77303;BME280;66363;49.828;7.856;2023-04-24T04:13:40;99058.53;;;9.37;68.87
77303;BME280;66363;49.828;7.856;2023-04-24T04:16:06;99061.44;;;9.34;68.97
77303;BME280;66363;49.828;7.856;2023-04-24T04:18:31;99072.53;;;9.28;69.54
77303;BME280;66363;49.828;7.856;2023-04-24T04:20:57;99068.81;;;9.19;69.31
77303;BME280;66363;49.828;7.856;2023-04-24T04:23:23;99071.75;;;9.05;70.41
77303;BME280;66363;49.828;7.856;2023-04-24T04:25:48;99074.31;;;8.95;71.28
77303;BME280;66363;49.828;7.856;2023-04-24T04:28:14;99079.97;;;8.91;71.70
77303;BME280;66363;49.828;7.856;2023-04-24T04:30:41;99081.53;;;8.93;72.16
77303;BME280;66363;49.828;7.856;2023-04-24T04:33:07;99086.56;;;9.07;71.26
77303;BME280;66363;49.828;7.856;2023-04-24T04:35:32;99093.00;;;9.14;70.77
77303;BME280;66363;49.828;7.856;2023-04-24T04:37:58;99088.19;;;9.19;71.63
77303;BME280;66363;49.828;7.856;2023-04-24T04:40:23;99094.44;;;9.30;68.51
77303;BME280;66363;49.828;7.856;2023-04-24T04:42:49;99099.47;;;9.33;67.82
77303;BME280;66363;49.828;7.856;2023-04-24T04:45:15;99113.81;;;9.30;64.36
77303;BME280;66363;49.828;7.856;2023-04-24T04:47:42;99114.28;;;9.35;63.33
77303;BME280;66363;49.828;7.856;2023-04-24T04:50:08;99115.72;;;9.28;63.47
77303;BME280;66363;49.828;7.856;2023-04-24T04:52:34;99121.41;;;9.24;63.00
77303;BME280;66363;49.828;7.856;2023-04-24T04:55:00;99125.72;;;9.25;62.40
77303;BME280;66363;49.828;7.856;2023-04-24T04:57:26;99126.09;;;9.20;62.50
77303;BME280;66363;49.828;7.856;2023-04-24T04:59:51;99128.25;;;9.15;62.73
77303;BME280;66363;49.828;7.856;2023-04-24T05:02:17;99127.41;;;9.14;62.61
77303;BME280;66363;49.828;7.856;2023-04-24T05:04:44;99126.34;;;9.17;64.52
77303;BME280;66363;49.828;7.856;2023-04-24T05:07:09;99126.44;;;9.27;64.02
77303;BME280;66363;49.828;7.856;2023-04-24T05:09:35;99123.56;;;9.30;64.42
77303;BME280;66363;49.828;7.856;2023-04-24T05:12:01;99126.78;;;9.33;65.64
77303;BME280;66363;49.828;7.856;2023-04-24T05:14:26;99137.25;;;9.35;66.39
77303;BME280;66363;49.828;7.856;2023-04-24T05:16:52;99127.22;;;9.38;66.97
77303;BME280;66363;49.828;7.856;2023-04-24T05:19:18;99132.13;;;9.54;66.82
77303;BME280;66363;49.828;7.856;2023-04-24T05:21:45;99131.09;;;9.66;67.37
77303;BME280;66363;49.828;7.856;2023-04-24T05:24:10;99137.47;;;9.75;66.76
77303;BME280;66363;49.828;7.856;2023-04-24T05:26:36;99143.22;;;9.80;66.83
77303;BME280;66363;49.828;7.856;2023-04-24T05:29:02;99143.09;;;9.81;67.63
77303;BME280;66363;49.828;7.856;2023-04-24T05:31:27;99155.03;;;9.76;67.36
77303;BME280;66363;49.828;7.856;2023-04-24T05:33:53;99147.72;;;9.68;67.94
77303;BME280;66363;49.828;7.856;2023-04-24T05:36:19;99153.50;;;9.62;68.12
77303;BME280;66363;49.828;7.856;2023-04-24T05:38:46;99151.88;;;9.50;71.34
77303;BME280;66363;49.828;7.856;2023-04-24T05:41:11;99150.91;;;9.51;69.53
77303;BME280;66363;49.828;7.856;2023-04-24T05:43:37;99152.94;;;9.59;69.16
77303;BME280;66363;49.828;7.856;2023-04-24T05:46:03;99150.88;;;9.62;68.78
77303;BME280;66363;49.828;7.856;2023-04-24T05:48:29;99159.22;;;9.58;68.42
77303;BME280;66363;49.828;7.856;2023-04-24T05:50:54;99160.78;;;9.60;69.49
77303;BME280;66363;49.828;7.856;2023-04-24T05:53:20;99170.41;;;9.61;69.46
77303;BME280;66363;49.828;7.856;2023-04-24T05:55:47;99177.09;;;9.33;71.50
77303;BME280;66363;49.828;7.856;2023-04-24T05:58:13;99186.72;;;9.12;73.03
77303;BME280;66363;49.828;7.856;2023-04-24T06:00:38;99182.66;;;8.97;73.13
77303;BME280;66363;49.828;7.856;2023-04-24T06:03:04;99179.78;;;8.89;73.88
77303;BME280;66363;49.828;7.856;2023-04-24T06:05:30;99177.63;;;8.82;73.63
77303;BME280;66363;49.828;7.856;2023-04-24T06:07:55;99184.34;;;8.75;73.51
77303;BME280;66363;49.828;7.856;2023-04-24T06:10:21;99193.34;;;8.84;76.19
77303;BME280;66363;49.828;7.856;2023-04-24T06:12:48;99191.56;;;8.96;75.35
77303;BME280;66363;49.828;7.856;2023-04-24T06:15:14;99197.22;;;9.02;75.88
77303;BME280;66363;49.828;7.856;2023-04-24T06:17:40;99196.59;;;9.10;74.81
77303;BME280;66363;49.828;7.856;2023-04-24T06:20:06;99199.13;;;9.23;74.12
77303;BME280;66363;49.828;7.856;2023-04-24T06:22:32;99206.72;;;9.70;74.29
77303;BME280;66363;49.828;7.856;2023-04-24T06:24:59;99216.97;;;9.96;71.09
77303;BME280;66363;49.828;7.856;2023-04-24T06:27:26;99204.78;;;10.36;70.47
77303;BME280;66363;49.828;7.856;2023-04-24T06:29:53;99204.06;;;10.55;69.73
77303;BME280;66363;49.828;7.856;2023-04-24T06:32:19;99201.53;;;10.33;68.97
77303;BME280;66363;49.828;7.856;2023-04-24T06:34:45;99208.28;;;10.05;69.00
77303;BME280;66363;49.828;7.856;2023-04-24T06:37:10;99216.47;;;10.02;68.61
77303;BME280;66363;49.828;7.856;2023-04-24T06:39:36;99214.75;;;10.12;68.56
77303;BME280;66363;49.828;7.856;2023-04-24T06:42:02;99206.19;;;10.19;68.34
77303;BME280;66363;49.828;7.856;2023-04-24T06:44:28;99203.88;;;10.26;68.84
77303;BME280;66363;49.828;7.856;2023-04-24T06:46:55;99214.03;;;10.10;68.50
77303;BME280;66363;49.828;7.856;2023-04-24T06:49:21;99202.38;;;10.01;69.33
77303;BME280;66363;49.828;7.856;2023-04-24T06:51:47;99195.19;;;9.92;68.99
77303;BME280;66363;49.828;7.856;2023-04-24T06:54:13;99211.66;;;10.39;67.67
77303;BME280;66363;49.828;7.856;2023-04-24T06:56:39;99205.06;;;10.84;65.26
77303;BME280;66363;49.828;7.856;2023-04-24T06:59:05;99212.25;;;10.73;65.12
77303;BME280;66363;49.828;7.856;2023-04-24T07:01:30;99226.25;;;10.54;66.93
77303;BME280;66363;49.828;7.856;2023-04-24T07:03:58;99229.22;;;10.61;66.53
77303;BME280;66363;49.828;7.856;2023-04-24T07:06:23;99229.22;;;10.61;66.01
77303;BME280;66363;49.828;7.856;2023-04-24T07:08:49;99232.59;;;10.63;65.56
77303;BME280;66363;49.828;7.856;2023-04-24T07:11:14;99238.53;;;10.76;66.08
77303;BME280;66363;49.828;7.856;2023-04-24T07:13:40;99236.00;;;10.74;63.20
77303;BME280;66363;49.828;7.856;2023-04-24T07:16:06;99233.03;;;10.68;61.74
77303;BME280;66363;49.828;7.856;2023-04-24T07:18:31;99238.78;;;10.52;61.34
77303;BME280;66363;49.828;7.856;2023-04-24T07:20:58;99227.09;;;10.54;63.29
77303;BME280;66363;49.828;7.856;2023-04-24T07:23:24;99228.69;;;10.67;61.46
77303;BME280;66363;49.828;7.856;2023-04-24T07:25:50;99229.53;;;10.88;59.75
77303;BME280;66363;49.828;7.856;2023-04-24T07:28:15;99226.44;;;10.93;60.59
77303;BME280;66363;49.828;7.856;2023-04-24T07:30:41;99228.34;;;10.81;59.28
77303;BME280;66363;49.828;7.856;2023-04-24T07:33:07;99222.09;;;10.61;59.44
77303;BME280;66363;49.828;7.856;2023-04-24T07:35:33;99245.31;;;10.48;61.42
77303;BME280;66363;49.828;7.856;2023-04-24T07:38:00;99230.22;;;10.39;60.99
77303;BME280;66363;49.828;7.856;2023-04-24T07:40:26;99236.84;;;10.33;60.98
77303;BME280;66363;49.828;7.856;2023-04-24T07:42:51;99230.13;;;10.29;62.15
77303;BME280;66363;49.828;7.856;2023-04-24T07:45:17;99245.31;;;10.16;61.46
77303;BME280;66363;49.828;7.856;2023-04-24T07:47:42;99229.06;;;10.20;62.04
77303;BME280;66363;49.828;7.856;2023-04-24T07:50:09;99217.09;;;10.68;60.81
77303;BME280;66363;49.828;7.856;2023-04-24T07:52:36;99224.50;;;11.25;59.56
77303;BME280;66363;49.828;7.856;2023-04-24T07:55:04;99236.44;;;11.40;59.31
77303;BME280;66363;49.828;7.856;2023-04-24T07:57:33;99233.34;;;11.35;58.98
77303;BME280;66363;49.828;7.856;2023-04-24T07:59:59;99237.56;;;11.47;59.96
77303;BME280;66363;49.828;7.856;2023-04-24T08:02:25;99244.81;;;11.36;60.80
77303;BME280;66363;49.828;7.856;2023-04-24T08:04:50;99229.22;;;11.21;59.90
77303;BME280;66363;49.828;7.856;2023-04-24T08:07:16;99239.28;;;11.18;59.67
77303;BME280;66363;49.828;7.856;2023-04-24T08:09:42;99245.88;;;10.93;59.34
77303;BME280;66363;49.828;7.856;2023-04-24T08:12:09;99257.63;;;10.91;60.32
77303;BME280;66363;49.828;7.856;2023-04-24T08:14:35;99256.44;;;10.83;59.33
77303;BME280;66363;49.828;7.856;2023-04-24T08:17:01;99257.22;;;10.74;60.37
77303;BME280;66363;49.828;7.856;2023-04-24T08:19:27;99266.41;;;10.70;60.05
77303;BME280;66363;49.828;7.856;2023-04-24T08:21:53;99273.63;;;10.59;60.66
77303;BME280;66363;49.828;7.856;2023-04-24T08:24:19;99286.22;;;10.87;60.01
77303;BME280;66363;49.828;7.856;2023-04-24T08:26:45;99273.81;;;10.87;60.38
77303;BME280;66363;49.828;7.856;2023-04-24T08:29:12;99278.53;;;10.84;60.73
77303;BME280;66363;49.828;7.856;2023-04-24T08:31:38;99273.72;;;10.78;61.00
77303;BME280;66363;49.828;7.856;2023-04-24T08:34:04;99274.31;;;10.81;61.17
77303;BME280;66363;49.828;7.856;2023-04-24T08:36:29;99288.06;;;10.96;60.01
77303;BME280;66363;49.828;7.856;2023-04-24T08:38:55;99278.13;;;11.49;59.11
77303;BME280;66363;49.828;7.856;2023-04-24T08:41:21;99297.47;;;11.61;58.29
77303;BME280;66363;49.828;7.856;2023-04-24T08:43:47;99298.31;;;11.31;59.86
77303;BME280;66363;49.828;7.856;2023-04-24T08:46:15;99288.50;;;11.22;59.96
77303;BME280;66363;49.828;7.856;2023-04-24T08:48:40;99288.47;;;11.12;60.47
77303;BME280;66363;49.828;7.856;2023-04-24T08:51:07;99293.72;;;11.33;60.15
77303;BME280;66363;49.828;7.856;2023-04-24T08:53:33;99320.41;;;11.62;58.38
77303;BME280;66363;49.828;7.856;2023-04-24T08:56:01;99295.06;;;11.58;60.65
77303;BME280;66363;49.828;7.856;2023-04-24T08:58:27;99302.16;;;11.48;59.89
77303;BME280;66363;49.828;7.856;2023-04-24T09:00:54;99318.91;;;11.69;58.81
77303;BME280;66363;49.828;7.856;2023-04-24T09:03:21;99309.38;;;12.16;58.09
77303;BME280;66363;49.828;7.856;2023-04-24T09:05:48;99291.88;;;12.23;57.83
77303;BME280;66363;49.828;7.856;2023-04-24T09:08:14;99338.50;;;12.85;54.85
77303;BME280;66363;49.828;7.856;2023-04-24T09:10:41;99300.44;;;12.46;57.38
77303;BME280;66363;49.828;7.856;2023-04-24T09:13:07;99308.84;;;12.42;56.21
77303;BME280;66363;49.828;7.856;2023-04-24T09:15:33;99314.13;;;13.46;53.96
77303;BME280;66363;49.828;7.856;2023-04-24T09:17:59;99310.09;;;13.97;53.31
77303;BME280;66363;49.828;7.856;2023-04-24T09:20:26;99304.94;;;13.58;53.48
77303;BME280;66363;49.828;7.856;2023-04-24T09:22:54;99304.75;;;12.67;56.30
77303;BME280;66363;49.828;7.856;2023-04-24T09:25:20;99312.03;;;12.36;55.94
77303;BME280;66363;49.828;7.856;2023-04-24T09:27:45;99300.84;;;12.13;57.84
77303;BME280;66363;49.828;7.856;2023-04-24T09:30:12;99327.53;;;11.92;59.36
77303;BME280;66363;49.828;7.856;2023-04-24T09:32:38;99319.25;;;11.55;60.56
77303;BME280;66363;49.828;7.856;2023-04-24T09:35:11;99314.66;;;11.27;60.93
77303;BME280;66363;49.828;7.856;2023-04-24T09:37:40;99321.97;;;11.34;62.11
77303;BME280;66363;49.828;7.856;2023-04-24T09:40:14;99324.09;;;11.40;59.99
77303;BME280;66363;49.828;7.856;2023-04-24T09:42:43;99332.91;;;11.41;60.88
77303;BME280;66363;49.828;7.856;2023-04-24T09:45:09;99310.97;;;11.48;60.77
77303;BME280;66363;49.828;7.856;2023-04-24T09:47:36;99328.25;;;11.73;59.96
77303;BME280;66363;49.828;7.856;2023-04-24T09:50:09;99326.75;;;12.30;58.23
77303;BME280;66363;49.828;7.856;2023-04-24T09:52:35;99323.88;;;14.55;52.20
77303;BME280;66363;49.828;7.856;2023-04-24T09:55:02;99336.22;;;14.56;50.76
77303;BME280;66363;49.828;7.856;2023-04-24T09:57:35;99321.00;;;14.49;50.75
77303;BME280;66363;49.828;7.856;2023-04-24T10:00:01;99323.28;;;14.16;52.46
77303;BME280;66363;49.828;7.856;2023-04-24T10:02:31;99328.94;;;14.13;50.79
77303;BME280;66363;49.828;7.856;2023-04-24T10:04:57;99325.69;;;13.65;52.29
77303;BME280;66363;49.828;7.856;2023-04-24T10:07:25;99327.81;;;13.24;54.69
77303;BME280;66363;49.828;7.856;2023-04-24T10:09:51;99321.88;;;12.45;55.91
77303;BME280;66363;49.828;7.856;2023-04-24T10:12:18;99335.00;;;12.17;57.77
77303;BME280;66363;49.828;7.856;2023-04-24T10:14:45;99342.91;;;11.88;58.36
77303;BME280;66363;49.828;7.856;2023-04-24T10:17:12;99346.03;;;11.73;59.71
77303;BME280;66363;49.828;7.856;2023-04-24T10:19:40;99348.81;;;11.71;59.92
77303;BME280;66363;49.828;7.856;2023-04-24T10:22:06;99355.69;;;11.74;58.91
77303;BME280;66363;49.828;7.856;2023-04-24T10:24:33;99352.66;;;11.78;58.39
77303;BME280;66363;49.828;7.856;2023-04-24T10:26:59;99363.19;;;11.89;58.57
77303;BME280;66363;49.828;7.856;2023-04-24T10:29:27;99357.97;;;12.38;57.82
77303;BME280;66363;49.828;7.856;2023-04-24T10:31:55;99368.63;;;12.47;56.17
77303;BME280;66363;49.828;7.856;2023-04-24T10:34:22;99366.06;;;12.17;56.53
77303;BME280;66363;49.828;7.856;2023-04-24T10:36:51;99382.69;;;12.09;58.10
77303;BME280;66363;49.828;7.856;2023-04-24T10:39:17;99387.75;;;12.22;57.34
77303;BME280;66363;49.828;7.856;2023-04-24T10:41:44;99368.75;;;12.55;57.26
77303;BME280;66363;49.828;7.856;2023-04-24T10:44:11;99384.31;;;12.79;56.23
77303;BME280;66363;49.828;7.856;2023-04-24T10:46:43;99388.94;;;12.58;57.34
77303;BME280;66363;49.828;7.856;2023-04-24T10:49:08;99391.19;;;12.63;59.06
77303;BME280;66363;49.828;7.856;2023-04-24T10:51:48;99401.69;;;12.54;58.92
77303;BME280;66363;49.828;7.856;2023-04-24T10:54:25;99410.88;;;12.31;60.34
77303;BME280;66363;49.828;7.856;2023-04-24T10:56:51;99411.88;;;12.30;59.72
77303;BME280;66363;49.828;7.856;2023-04-24T10:59:23;99417.22;;;12.49;57.17
77303;BME280;66363;49.828;7.856;2023-04-24T11:01:54;99418.09;;;12.60;58.35
77303;BME280;66363;49.828;7.856;2023-04-24T11:04:29;99425.50;;;12.56;58.21
77303;BME280;66363;49.828;7.856;2023-04-24T11:06:55;99450.03;;;12.10;59.55
77303;BME280;66363;49.828;7.856;2023-04-24T11:09:20;99456.78;;;11.63;61.39
77303;BME280;66363;49.828;7.856;2023-04-24T11:11:47;99441.63;;;11.33;63.22
77303;BME280;66363;49.828;7.856;2023-04-24T11:14:14;99445.13;;;11.12;62.17
77303;BME280;66363;49.828;7.856;2023-04-24T11:16:43;99445.56;;;11.17;62.88
77303;BME280;66363;49.828;7.856;2023-04-24T11:19:21;99442.81;;;11.70;61.11
77303;BME280;66363;49.828;7.856;2023-04-24T11:21:48;99437.00;;;13.05;57.96
77303;BME280;66363;49.828;7.856;2023-04-24T11:24:28;99439.25;;;13.48;55.24
77303;BME280;66363;49.828;7.856;2023-04-24T11:26:55;99453.19;;;14.71;52.85
77303;BME280;66363;49.828;7.856;2023-04-24T11:29:22;99455.97;;;13.87;54.20
77303;BME280;66363;49.828;7.856;2023-04-24T11:31:47;99458.72;;;13.68;54.07
77303;BME280;66363;49.828;7.856;2023-04-24T11:34:15;99455.28;;;13.19;53.44
77303;BME280;66363;49.828;7.856;2023-04-24T11:36:43;99464.91;;;12.81;54.08
77303;BME280;66363;49.828;7.856;2023-04-24T11:39:09;99460.78;;;12.48;53.85
77303;BME280;66363;49.828;7.856;2023-04-24T11:41:35;99461.22;;;12.44;54.56
77303;BME280;66363;49.828;7.856;2023-04-24T11:44:02;99472.72;;;12.64;53.89
77303;BME280;66363;49.828;7.856;2023-04-24T11:46:28;99471.38;;;12.98;53.99
77303;BME280;66363;49.828;7.856;2023-04-24T11:48:53;99468.81;;;13.64;51.91
77303;BME280;66363;49.828;7.856;2023-04-24T11:51:22;99457.47;;;17.05;43.82
77303;BME280;66363;49.828;7.856;2023-04-24T11:53:48;99463.84;;;17.44;42.22
77303;BME280;66363;49.828;7.856;2023-04-24T11:56:17;99454.28;;;17.90;40.87
77303;BME280;66363;49.828;7.856;2023-04-24T11:58:44;99464.97;;;16.93;41.09
77303;BME280;66363;49.828;7.856;2023-04-24T12:01:09;99452.50;;;16.59;42.27
77303;BME280;66363;49.828;7.856;2023-04-24T12:03:35;99460.47;;;15.75;45.90
77303;BME280;66363;49.828;7.856;2023-04-24T12:06:08;99443.22;;;14.90;48.08
77303;BME280;66363;49.828;7.856;2023-04-24T12:08:35;99474.72;;;14.42;47.64
77303;BME280;66363;49.828;7.856;2023-04-24T12:11:01;99476.91;;;13.82;48.69
77303;BME280;66363;49.828;7.856;2023-04-24T12:13:27;99478.25;;;13.30;51.03
77303;BME280;66363;49.828;7.856;2023-04-24T12:15:53;99464.97;;;13.20;52.79
77303;BME280;66363;49.828;7.856;2023-04-24T12:18:19;99475.59;;;13.49;51.07
77303;BME280;66363;49.828;7.856;2023-04-24T12:20:47;99480.00;;;14.24;46.59
77303;BME280;66363;49.828;7.856;2023-04-24T12:23:13;99470.81;;;13.99;48.92
77303;BME280;66363;49.828;7.856;2023-04-24T12:25:40;99476.19;;;13.80;47.11
77303;BME280;66363;49.828;7.856;2023-04-24T12:28:11;99465.88;;;13.67;47.17
77303;BME280;66363;49.828;7.856;2023-04-24T12:30:40;99468.84;;;13.25;48.39
77303;BME280;66363;49.828;7.856;2023-04-24T12:33:06;99475.75;;;13.18;48.94
77303;BME280;66363;49.828;7.856;2023-04-24T12:35:33;99461.28;;;13.11;50.08
77303;BME280;66363;49.828;7.856;2023-04-24T12:38:05;99470.22;;;13.01;50.54
77303;BME280;66363;49.828;7.856;2023-04-24T12:40:31;99467.56;;;12.81;49.88
77303;BME280;66363;49.828;7.856;2023-04-24T12:42:58;99477.22;;;12.82;51.61
77303;BME280;66363;49.828;7.856;2023-04-24T12:45:24;99463.78;;;13.13;51.56
77303;BME280;66363;49.828;7.856;2023-04-24T12:47:50;99464.91;;;15.05;46.44
77303;BME280;66363;49.828;7.856;2023-04-24T12:50:15;99471.91;;;16.53;43.15
77303;BME280;66363;49.828;7.856;2023-04-24T12:52:42;99472.16;;;15.74;45.65
77303;BME280;66363;49.828;7.856;2023-04-24T12:55:08;99474.81;;;15.31;46.38
77303;BME280;66363;49.828;7.856;2023-04-24T12:57:34;99484.16;;;14.64;48.26